Terminal Aerodrome Forecast
Issued by NWS

Home | Current Version | Previous Version | Text Only | Print | Product List | Glossary On
Versions: 1 2 3 4 5 6 7 8 9 10 11 12 13 14 15 16 17 18 19 20 21 22 23 24 25 26 27 28 29
000
FTUS41 KPHI 020500
TAFPNE
TAF
KPNE 020525Z 0206/0306 VRB03KT P6SM SCT070
     FM021400 26008KT P6SM SCT060
     FM021800 23010G18KT P6SM SCT050 BKN150
     FM022200 23008KT P6SM VCSH BKN050
     FM030500 29006KT P6SM FEW050 SCT250=

USA.gov is the U.S. government's official web portal to all federal, state and local government web resources and services.